Stations météo

réclame
Mon MeteoGroup
Mt. St.Vincent, France (7382): Température de l'air & dewpoint: 01.12.2019 05:00:00 - 07.12.2019 05:00:00 (CET)Mt. St.Vincent, France (7382): Vitesse du vent & gusts: 01.12.2019 05:00:00 - 07.12.2019 05:00:00 (CET)Mt. St.Vincent, France (7382): Direction du vent: 01.12.2019 05:00:00 - 07.12.2019 05:00:00 (CET)Mt. St.Vincent, France (7382): Ensoleillement: 01.12.2019 05:00:00 - 07.12.2019 05:00:00 (CET)Mt. St.Vincent, France (7382): Quantités de précipitations: 01.12.2019 05:00:00 - 07.12.2019 05:00:00 (CET)
Date & Time tt [°C] td [°C] ff [km/h] ff [knt] fx [km/h] fx [knt] dd sd [min] rr [mm]
07.12.2019 05:00:00 4,9 4,9 37 20 59 32 WSW 0 0,0
07.12.2019 04:00:00 5,0 5,0 41 22 61 33 WSW 0 0,4
07.12.2019 03:00:00 5,6 4,1 39 21 59 32 W 0 0,0
07.12.2019 02:00:00 6,7 2,4 39 21 59 32 W 0 0,0
07.12.2019 01:00:00 6,6 2,1 31 17 42 23 W 0 -
07.12.2019 00:00:00 6,5 2,0 28 15 44 24 WSW 0 0,0
06.12.2019 23:00:00 7,1 2,0 29 16 48 26 W 0 0,0
06.12.2019 22:00:00 7,3 2,4 31 17 42 23 WSW 0 0,0
06.12.2019 21:00:00 7,5 2,4 31 17 44 24 W 0 0,0
06.12.2019 20:00:00 8,2 2,0 28 15 41 22 WSW 0 0,0
06.12.2019 19:00:00 9,0 2,5 24 13 35 19 WSW 0 -
06.12.2019 18:00:00 8,8 2,6 28 15 39 21 WSW 0 0,0
06.12.2019 17:00:00 8,3 2,7 22 12 35 19 WSW 0 0,0
06.12.2019 16:00:00 8,6 2,4 26 14 41 22 WSW 0 0,0
06.12.2019 15:00:00 9,0 2,8 26 14 37 20 WSW 24 0,0
06.12.2019 14:00:00 9,5 2,6 26 14 41 22 WSW 60 0,0
06.12.2019 13:00:00 9,5 0,9 26 14 37 20 WSW 60 -
06.12.2019 12:00:00 9,3 0,7 21 11 35 19 WSW 54 0,0
06.12.2019 11:00:00 8,8 0,0 22 12 31 17 SW 60 0,0
06.12.2019 10:00:00 6,8 -0,4 18 10 29 16 SW 54 0,0
06.12.2019 09:00:00 5,0 -0,4 22 12 29 16 WSW 24 0,0
06.12.2019 08:00:00 4,1 0,1 24 13 31 17 WSW 0 0,0
06.12.2019 07:00:00 4,1 0,6 22 12 31 17 WSW 0 -
06.12.2019 06:00:00 4,5 0,6 22 12 29 16 WSW 0 0,0
06.12.2019 05:00:00 4,5 1,2 21 11 26 14 WSW 0 0,0
06.12.2019 04:00:00 4,7 1,5 16 9 22 12 SW 0 0,0
06.12.2019 03:00:00 3,4 1,4 13 7 21 11 SW 0 0,0
06.12.2019 02:00:00 3,3 1,7 15 8 21 11 SW 0 0,0
06.12.2019 01:00:00 3,8 2,0 15 8 24 13 WSW 0 -
06.12.2019 00:00:00 3,6 2,3 21 11 26 14 WSW 0 0,0
05.12.2019 23:00:00 3,2 2,3 18 10 26 14 SW 0 0,0
05.12.2019 22:00:00 3,2 2,6 22 12 26 14 WSW 0 0,0
05.12.2019 21:00:00 2,6 2,2 18 10 22 12 WSW 0 0,0
05.12.2019 20:00:00 2,7 2,1 21 11 22 12 W 0 0,0
05.12.2019 19:00:00 2,9 2,3 15 8 21 11 WSW 0 -
05.12.2019 18:00:00 3,0 2,3 16 9 22 12 W 0 0,0
05.12.2019 17:00:00 3,4 2,4 16 9 22 12 W 18 0,0
05.12.2019 16:00:00 5,5 3,3 15 8 22 12 W 60 0,0
05.12.2019 15:00:00 5,9 3,2 15 8 26 14 WSW 60 0,0
05.12.2019 14:00:00 4,7 2,1 21 11 31 17 W 60 0,0
05.12.2019 13:00:00 4,8 2,0 24 13 31 17 W 60 -
05.12.2019 12:00:00 4,2 1,6 22 12 29 16 W 60 0,0
05.12.2019 11:00:00 3,2 1,1 22 12 29 16 W 60 0,0
05.12.2019 10:00:00 2,2 0,9 22 12 29 16 W 48 0,0
05.12.2019 09:00:00 1,4 0,7 21 11 26 14 W 18 0,0
05.12.2019 08:00:00 2,0 0,8 15 8 21 11 W 0 0,0
05.12.2019 07:00:00 2,8 0,5 15 8 18 10 W 0 -
05.12.2019 06:00:00 2,9 0,5 8 4 15 8 W 0 0,0
05.12.2019 05:00:00 3,3 0,5 8 4 13 7 W 0 0,0
05.12.2019 04:00:00 3,5 0,2 11 6 16 9 W 0 0,0
05.12.2019 03:00:00 4,1 -0,1 8 4 11 6 W 0 0,0
05.12.2019 02:00:00 4,3 0,3 8 4 11 6 W 0 0,0
05.12.2019 01:00:00 4,7 -0,1 5 3 8 4 WSW 0 -
05.12.2019 00:00:00 4,5 -0,1 5 3 8 4 W 0 0,0
04.12.2019 23:00:00 4,7 0,6 4 2 8 4 WSW 0 0,0
04.12.2019 22:00:00 5,3 1,0 4 2 11 6 WSW 0 0,0
04.12.2019 21:00:00 4,6 0,9 9 5 13 7 WNW 0 0,0
04.12.2019 20:00:00 4,3 1,5 9 5 15 8 WSW 0 0,0
04.12.2019 19:00:00 3,8 1,2 13 7 16 9 WSW 0 -
04.12.2019 18:00:00 2,0 -1,4 9 5 13 7 SSE 0 0,0
04.12.2019 17:00:00 4,6 0,5 4 2 13 7 S 12 0,0
04.12.2019 16:00:00 4,9 1,0 11 6 16 9 SW 48 0,0
04.12.2019 15:00:00 5,4 1,7 8 4 13 7 WSW 60 0,0
04.12.2019 14:00:00 4,0 1,5 5 3 11 6 W 60 0,0
04.12.2019 13:00:00 2,8 0,0 2 1 9 5 ENE 60 -
04.12.2019 12:00:00 4,5 0,6 4 2 9 5 W 60 0,0
04.12.2019 11:00:00 1,6 -1,0 5 3 13 7 ESE 60 0,0
04.12.2019 10:00:00 0,1 -1,5 8 4 15 8 E 54 0,0
04.12.2019 09:00:00 -1,1 -1,9 11 6 15 8 E 24 0,0
04.12.2019 08:00:00 -2,1 -2,5 9 5 21 11 E 0 0,0
04.12.2019 07:00:00 -1,8 -2,5 13 7 21 11 E 0 -
04.12.2019 06:00:00 -2,2 -2,8 16 9 22 12 E 0 0,0
04.12.2019 05:00:00 -2,3 -3,0 18 10 22 12 E 0 0,0
04.12.2019 04:00:00 -1,8 -3,2 15 8 21 11 E 0 0,0
04.12.2019 03:00:00 -1,8 -3,2 9 5 15 8 ESE 0 0,0
04.12.2019 02:00:00 -1,9 -3,5 8 4 15 8 ENE 0 0,0
04.12.2019 01:00:00 -1,5 -3,5 11 6 18 10 ENE 0 -
04.12.2019 00:00:00 -1,1 -3,3 13 7 16 9 NE 0 0,0
03.12.2019 23:00:00 -0,9 -3,1 13 7 21 11 NE 0 0,0
03.12.2019 22:00:00 -0,8 -2,8 15 8 22 12 ENE 0 0,0
03.12.2019 21:00:00 -0,5 -2,6 16 9 26 14 ENE 0 0,0
03.12.2019 20:00:00 -0,5 -1,9 16 9 22 12 ENE 0 0,0
03.12.2019 19:00:00 -0,3 -1,7 15 8 26 14 ENE 0 -
03.12.2019 18:00:00 -0,3 -1,7 16 9 21 11 ENE 0 0,0
03.12.2019 17:00:00 -0,2 -1,9 13 7 22 12 E 30 0,0
03.12.2019 16:00:00 0,6 -1,8 16 9 24 13 E 60 0,0
03.12.2019 15:00:00 1,1 -1,6 18 10 28 15 ENE 60 0,0
03.12.2019 14:00:00 1,5 -1,4 18 10 28 15 ENE 60 0,0
03.12.2019 13:00:00 1,0 -2,1 18 10 29 16 ENE 60 -
03.12.2019 12:00:00 0,6 -2,0 22 12 44 24 E 54 0,0
03.12.2019 11:00:00 -0,3 -2,4 29 16 54 29 ENE 60 0,0
03.12.2019 10:00:00 -0,8 -2,5 34 18 55 30 ENE 54 0,0
03.12.2019 09:00:00 -1,5 -2,9 29 16 57 31 ENE 24 0,0
03.12.2019 08:00:00 -1,9 -3,0 41 22 68 37 NE 0 0,0
03.12.2019 07:00:00 -1,4 -3,1 31 17 65 35 NE 0 -
03.12.2019 06:00:00 -1,3 -3,2 37 20 63 34 NE 0 0,0
03.12.2019 05:00:00 -1,1 -3,3 29 16 63 34 NE 0 0,0
03.12.2019 04:00:00 -1,1 -3,0 42 23 70 38 ENE 0 0,0
03.12.2019 03:00:00 -0,9 -2,9 39 21 68 37 NE 0 0,0
03.12.2019 02:00:00 -1,3 -2,9 37 20 63 34 NE 0 0,0
03.12.2019 01:00:00 -1,7 -3,0 26 14 59 32 NE 0 -
03.12.2019 00:00:00 -1,4 -3,0 29 16 50 27 NE 0 0,0
02.12.2019 23:00:00 -1,4 -2,5 21 11 44 24 NNE 0 0,0
02.12.2019 22:00:00 -1,4 -2,4 24 13 48 26 NE 0 0,0
02.12.2019 21:00:00 -1,1 -2,5 26 14 50 27 NE 0 0,0
02.12.2019 20:00:00 -1,0 -2,3 22 12 44 24 NNE 0 0,0
02.12.2019 19:00:00 -0,8 -1,5 22 12 46 25 NE 0 -
02.12.2019 18:00:00 -0,2 -1,0 22 12 48 26 NNE 0 0,0
02.12.2019 17:00:00 0,4 -0,6 24 13 48 26 NNE 30 0,0
02.12.2019 16:00:00 1,1 0,4 21 11 41 22 NE 60 0,0
02.12.2019 15:00:00 1,8 1,7 18 10 37 20 NE 42 0,0
02.12.2019 14:00:00 0,9 0,9 18 10 35 19 NNE 0 0,0
02.12.2019 13:00:00 1,1 1,1 9 5 29 16 NNE 0 -
02.12.2019 12:00:00 1,3 1,3 11 6 26 14 NE 0 0,0
02.12.2019 11:00:00 1,1 1,1 16 9 28 15 NE 0 0,0
02.12.2019 10:00:00 1,5 1,5 18 10 34 18 NE 0 0,0
02.12.2019 09:00:00 1,4 1,4 11 6 29 16 N 0 0,0
02.12.2019 08:00:00 1,5 1,5 11 6 28 15 N 0 0,0
02.12.2019 07:00:00 1,5 1,5 15 8 29 16 NNE 0 -
02.12.2019 06:00:00 1,6 1,6 15 8 29 16 NNE 0 0,0
02.12.2019 05:00:00 2,0 2,0 9 5 29 16 NNE 0 0,0
02.12.2019 04:00:00 2,4 2,4 9 5 31 17 NNE 0 0,0
02.12.2019 03:00:00 2,7 2,7 16 9 29 16 N 0 0,0
02.12.2019 02:00:00 3,0 3,0 13 7 26 14 NNE 0 0,0
02.12.2019 01:00:00 3,2 3,2 11 6 29 16 N 0 -
02.12.2019 00:00:00 3,9 3,9 9 5 28 15 N 0 0,0
01.12.2019 23:00:00 4,6 4,6 9 5 22 12 N 0 0,4
01.12.2019 22:00:00 5,2 5,2 9 5 16 9 N 0 0,8
01.12.2019 21:00:00 5,4 5,4 4 2 8 4 NNW 0 0,0
01.12.2019 20:00:00 5,2 5,2 4 2 8 4 NE 0 0,0
01.12.2019 19:00:00 5,3 5,3 4 2 8 4 ENE 0 -
01.12.2019 18:00:00 5,5 5,5 4 2 11 6 NNE 0 0,0
01.12.2019 17:00:00 5,8 5,8 8 4 11 6 ENE 0 0,0
01.12.2019 16:00:00 6,1 6,1 4 2 9 5 NNE 0 0,0
01.12.2019 15:00:00 6,4 6,4 4 2 9 5 NNE 0 0,0
01.12.2019 14:00:00 6,4 6,4 4 2 11 6 WSW 0 0,0
01.12.2019 13:00:00 6,4 6,4 5 3 15 8 SSE 18 -
01.12.2019 12:00:00 6,5 6,5 8 4 18 10 S 42 0,0
01.12.2019 11:00:00 5,0 5,0 11 6 18 10 SE 0 0,0
01.12.2019 10:00:00 5,1 5,1 8 4 11 6 SSE 12 0,0
01.12.2019 09:00:00 4,5 4,5 8 4 11 6 SW 0 0,8
01.12.2019 08:00:00 3,9 3,9 8 4 11 6 SSE 0 1,0
01.12.2019 07:00:00 4,2 4,2 4 2 13 7 ESE 0 -
01.12.2019 06:00:00 3,6 3,6 5 3 13 7 E 0 2,0
01.12.2019 05:00:00 3,2 3,2 9 5 16 9 E 0 2,0

tt = Température de l'air
td = dewpoint
ff = Vitesse du vent
fx = gusts
dd = Direction du vent
sd = Ensoleillement
rr = Quantités de précipitations

stations d'obs. à proximité